Albany, Pennsylvania
Current Conditions -  °F | °C
As of 10:54 PM on Sunday 21 Dec 2014 (Local Time) from KRDG Reporting Station
Clear Clear  
Wind Chill: 24°   Ceiling: Unl
Heat Index: 24°   Visibility: 9mi
Dew Point: 19°   Wind: 0mph
Humidity: 81%   Direction: NA
Pressure: 30.34"   Gusts: NA
Location:  40.6329°N, 75.8768°W
Report Text: KRDG 220354Z AUTO 00000KT 9SM CLR M04/M07 A3034 RMK AO2 SLP284 T10441072
Loading
Personal Weather Stations






























Interactive Weather Map New forecast layout! Learn more

10-Day Weather Forecast

Advertisements
Track Severe Weather on mobile